createdAt,value
2022-11-20T00:01:54.525Z,4.38
2022-11-20T00:04:24.562Z,4.38
2022-11-20T00:06:54.592Z,4.35
2022-11-20T00:09:24.708Z,4.28
2022-11-20T00:11:54.836Z,4.21
2022-11-20T00:14:24.938Z,4.18
2022-11-20T00:16:57.615Z,4.22
2022-11-20T00:19:27.689Z,4.30
2022-11-20T00:21:57.752Z,4.22
2022-11-20T00:24:28.051Z,4.21
2022-11-20T00:26:58.061Z,4.16
2022-11-20T00:29:28.184Z,4.24
2022-11-20T00:32:00.884Z,4.30
2022-11-20T00:34:30.893Z,4.29
2022-11-20T00:37:00.883Z,4.33
2022-11-20T00:39:30.914Z,4.31
2022-11-20T00:42:01.019Z,4.39
2022-11-20T00:44:31.115Z,4.37
2022-11-20T00:47:03.744Z,4.41
2022-11-20T00:49:33.836Z,4.43
2022-11-20T00:52:03.964Z,4.46
2022-11-20T00:54:34.100Z,4.48
2022-11-20T00:57:04.159Z,4.53
2022-11-20T00:59:34.175Z,4.52
2022-11-20T01:02:06.820Z,4.59
2022-11-20T01:04:36.812Z,4.56
2022-11-20T01:07:07.580Z,4.62
2022-11-20T01:09:39.593Z,4.60
2022-11-20T01:12:09.912Z,4.60
2022-11-20T01:14:40.155Z,4.60
2022-11-20T01:17:13.041Z,4.62
2022-11-20T01:19:43.339Z,4.61
2022-11-20T01:22:13.692Z,4.66
2022-11-20T01:24:43.801Z,4.64
2022-11-20T01:27:13.876Z,4.67
2022-11-20T01:29:43.937Z,4.69
2022-11-20T01:32:16.553Z,4.65
2022-11-20T01:34:46.547Z,4.75
2022-11-20T01:37:16.579Z,4.69
2022-11-20T01:39:46.660Z,4.77
2022-11-20T01:42:29.181Z,4.76
2022-11-20T01:45:03.341Z,4.77
2022-11-20T01:47:43.385Z,4.77
2022-11-20T01:50:20.697Z,4.71
2022-11-20T01:53:00.308Z,4.70
2022-11-20T01:55:34.852Z,4.63
2022-11-20T01:58:07.989Z,4.63
2022-11-20T02:00:38.676Z,4.57
2022-11-20T02:03:16.093Z,4.48
2022-11-20T02:05:54.250Z,4.36
2022-11-20T02:08:26.857Z,4.31
2022-11-20T02:10:57.148Z,4.22
2022-11-20T02:13:39.894Z,4.19
2022-11-20T02:16:15.288Z,4.12
2022-11-20T02:18:49.424Z,4.11
2022-11-20T02:21:46.795Z,4.10
2022-11-20T02:24:22.051Z,4.14
2022-11-20T02:26:58.230Z,4.18
2022-11-20T02:29:33.513Z,4.29
2022-11-20T02:32:06.473Z,4.32
2022-11-20T02:34:36.666Z,4.30
2022-11-20T02:37:06.864Z,4.35
2022-11-20T02:39:39.711Z,4.34
2022-11-20T02:42:09.782Z,4.31
2022-11-20T02:44:39.832Z,4.34
2022-11-20T02:47:10.284Z,4.32
2022-11-20T02:49:40.412Z,4.28
2022-11-20T02:52:10.486Z,4.22
2022-11-20T02:54:43.129Z,4.24
2022-11-20T02:57:13.188Z,4.23
2022-11-20T02:59:43.245Z,4.33
2022-11-20T03:02:13.486Z,4.24
2022-11-20T03:04:43.602Z,4.28
2022-11-20T03:07:13.957Z,4.21
2022-11-20T03:09:47.871Z,4.13
2022-11-20T03:12:18.445Z,4.14
2022-11-20T03:14:52.801Z,4.05
2022-11-20T03:17:23.677Z,4.03
2022-11-20T03:19:53.687Z,3.97
2022-11-20T03:22:23.796Z,3.96
2022-11-20T03:24:56.607Z,4.07
2022-11-20T03:27:26.621Z,4.19
2022-11-20T03:29:56.660Z,4.23
2022-11-20T03:32:26.689Z,4.37
2022-11-20T03:34:56.703Z,4.42
2022-11-20T03:37:27.176Z,4.45
2022-11-20T03:39:59.776Z,4.39
2022-11-20T03:42:42.306Z,4.42
2022-11-20T03:45:13.339Z,4.52
2022-11-20T03:47:43.692Z,4.53
2022-11-20T03:50:16.497Z,4.56
2022-11-20T03:52:46.530Z,4.43
2022-11-20T03:55:19.318Z,4.20
2022-11-20T03:57:49.327Z,4.06
2022-11-20T04:00:20.109Z,3.92
2022-11-20T04:02:50.094Z,3.76
2022-11-20T04:05:20.461Z,3.71
2022-11-20T04:07:50.431Z,3.79
2022-11-20T04:10:23.204Z,3.93
2022-11-20T04:12:53.232Z,3.95
2022-11-20T04:15:23.203Z,4.06
2022-11-20T04:17:53.464Z,4.07
2022-11-20T04:20:23.448Z,4.16
2022-11-20T04:22:56.541Z,4.28
2022-11-20T04:25:29.235Z,4.30
2022-11-20T04:27:59.393Z,4.32
2022-11-20T04:30:29.400Z,4.30
2022-11-20T04:32:59.372Z,4.30
2022-11-20T04:35:29.347Z,4.26
2022-11-20T04:37:59.341Z,4.26
2022-11-20T04:40:31.985Z,4.30
2022-11-20T04:43:02.111Z,4.24
2022-11-20T04:45:32.105Z,4.19
2022-11-20T04:48:02.088Z,4.19
2022-11-20T04:50:32.126Z,4.27
2022-11-20T04:53:02.109Z,4.25
2022-11-20T04:55:34.648Z,4.22
2022-11-20T04:58:04.797Z,4.24
2022-11-20T05:00:34.845Z,4.29
2022-11-20T05:03:04.956Z,4.37
2022-11-20T05:05:36.861Z,4.30
2022-11-20T05:08:07.726Z,4.41
2022-11-20T05:10:40.416Z,4.47
2022-11-20T05:13:10.356Z,4.45
2022-11-20T05:15:40.415Z,4.50
2022-11-20T05:18:10.438Z,4.57
2022-11-20T05:20:40.420Z,4.59
2022-11-20T05:23:10.384Z,4.67
2022-11-20T05:25:42.956Z,4.76
2022-11-20T05:28:12.961Z,4.85
2022-11-20T05:30:42.956Z,4.86
2022-11-20T05:33:13.105Z,4.82
2022-11-20T05:35:43.386Z,4.91
2022-11-20T05:38:13.711Z,4.92
2022-11-20T05:40:46.407Z,4.99
2022-11-20T05:43:16.360Z,5.08
2022-11-20T05:45:46.344Z,4.92
2022-11-20T05:48:16.344Z,4.91
2022-11-20T05:50:47.368Z,5.02
2022-11-20T05:53:17.566Z,5.12
2022-11-20T05:55:50.124Z,5.18
2022-11-20T05:58:20.092Z,5.26
2022-11-20T06:00:50.068Z,5.22
2022-11-20T06:03:19.996Z,5.25
2022-11-20T06:05:50.049Z,5.10
2022-11-20T06:08:20.349Z,5.15
2022-11-20T06:10:52.929Z,5.22
2022-11-20T06:13:22.870Z,5.26
2022-11-20T06:15:53.760Z,5.28
2022-11-20T06:18:24.057Z,5.25
2022-11-20T06:21:03.886Z,5.20
2022-11-20T06:23:35.694Z,5.10
2022-11-20T06:26:11.412Z,4.97
2022-11-20T06:28:42.424Z,5.03
2022-11-20T06:31:16.700Z,5.02
2022-11-20T06:33:47.274Z,5.07
2022-11-20T06:36:20.781Z,5.03
2022-11-20T06:38:52.151Z,4.93
2022-11-20T06:41:26.301Z,4.96
2022-11-20T06:43:56.274Z,4.96
2022-11-20T06:46:26.609Z,4.96
2022-11-20T06:48:56.573Z,5.01
2022-11-20T06:51:26.558Z,5.00
2022-11-20T06:53:57.661Z,5.09
2022-11-20T06:56:30.900Z,5.17
2022-11-20T06:59:00.938Z,5.07
2022-11-20T07:01:30.925Z,5.13
2022-11-20T07:04:00.962Z,5.19
2022-11-20T07:06:31.189Z,5.27
2022-11-20T07:09:01.430Z,5.33
2022-11-20T07:11:34.005Z,5.33
2022-11-20T07:14:04.041Z,5.38
2022-11-20T07:16:34.089Z,5.31
2022-11-20T07:19:04.267Z,5.30
2022-11-20T07:21:34.276Z,5.43
2022-11-20T07:24:04.260Z,5.53
2022-11-20T07:26:37.017Z,5.75
2022-11-20T07:29:07.181Z,5.79
2022-11-20T07:31:37.181Z,5.89
2022-11-20T07:34:07.387Z,5.98
2022-11-20T07:36:37.407Z,6.09
2022-11-20T07:39:07.672Z,6.26
2022-11-20T07:41:40.250Z,6.33
2022-11-20T07:44:10.408Z,6.31
2022-11-20T07:46:40.360Z,6.48
2022-11-20T07:49:10.362Z,6.61
2022-11-20T07:51:40.348Z,6.62
2022-11-20T07:54:10.420Z,6.73
2022-11-20T07:56:43.044Z,6.94
2022-11-20T07:59:13.131Z,7.02
2022-11-20T08:01:43.594Z,7.04
2022-11-20T08:04:14.984Z,7.10
2022-11-20T08:06:44.978Z,7.29
2022-11-20T08:09:15.107Z,7.37
2022-11-20T08:12:00.287Z,7.25
2022-11-20T08:14:30.251Z,7.01
2022-11-20T08:17:00.393Z,7.28
2022-11-20T08:19:30.545Z,7.13
2022-11-20T08:22:01.065Z,7.28
2022-11-20T08:24:31.546Z,6.98
2022-11-20T08:27:04.542Z,7.09
2022-11-20T08:29:34.510Z,7.20
2022-11-20T08:32:04.538Z,7.27
2022-11-20T08:34:34.553Z,7.32
2022-11-20T08:37:06.589Z,7.54
2022-11-20T08:39:36.780Z,7.52
2022-11-20T08:42:10.837Z,7.29
2022-11-20T08:44:41.010Z,7.21
2022-11-20T08:47:11.012Z,7.32
2022-11-20T08:49:41.018Z,7.21
2022-11-20T08:52:11.013Z,7.04
2022-11-20T08:54:41.020Z,7.06
2022-11-20T08:57:14.303Z,7.10
2022-11-20T09:00:05.103Z,6.96
2022-11-20T09:02:35.006Z,7.22
2022-11-20T09:05:05.945Z,7.32
2022-11-20T09:07:36.043Z,7.49
2022-11-20T09:12:59.921Z,7.49
2022-11-20T09:15:30.794Z,7.77
2022-11-20T09:18:04.731Z,7.84
2022-11-20T09:20:36.659Z,7.94
2022-11-20T09:23:06.853Z,8.05
2022-11-20T09:25:36.925Z,8.04
2022-11-20T09:28:09.589Z,7.90
2022-11-20T09:30:39.944Z,7.83
2022-11-20T09:33:10.461Z,7.46
2022-11-20T09:35:40.513Z,7.65
2022-11-20T09:38:11.700Z,7.49
2022-11-20T09:40:49.525Z,7.75
2022-11-20T09:43:34.703Z,7.88
2022-11-20T09:46:17.035Z,7.68
2022-11-20T09:49:07.363Z,7.76
2022-11-20T09:51:50.076Z,7.28
2022-11-20T09:54:22.835Z,7.22
2022-11-20T09:56:59.059Z,7.56
2022-11-20T09:59:46.231Z,7.46
2022-11-20T10:02:33.209Z,7.44
2022-11-20T10:05:14.834Z,7.44
2022-11-20T10:07:56.329Z,7.88
2022-11-20T10:10:46.443Z,7.78
2022-11-20T10:13:39.699Z,7.78
2022-11-20T10:16:36.684Z,7.84
2022-11-20T10:19:34.164Z,7.62
2022-11-20T10:22:24.343Z,7.70
2022-11-20T10:25:05.725Z,7.48
2022-11-20T10:28:29.443Z,7.37
2022-11-20T10:31:06.808Z,7.42
2022-11-20T10:34:10.353Z,7.40
2022-11-20T10:36:44.760Z,7.42
2022-11-20T10:39:26.889Z,7.16
2022-11-20T10:41:57.562Z,6.87
2022-11-20T10:44:45.154Z,6.65
2022-11-20T10:47:19.602Z,6.65
2022-11-20T10:49:57.750Z,6.47
2022-11-20T10:52:42.497Z,6.33
2022-11-20T10:55:30.487Z,6.17
2022-11-20T10:58:18.198Z,6.27
2022-11-20T11:00:48.395Z,6.22
2022-11-20T11:03:29.860Z,6.13
2022-11-20T11:06:14.105Z,6.08
2022-11-20T11:08:45.150Z,6.02
2022-11-20T11:11:25.933Z,6.17
2022-11-20T11:13:56.476Z,6.21
2022-11-20T11:16:29.397Z,6.16
2022-11-20T11:19:09.390Z,6.28
2022-11-20T11:21:44.777Z,6.45
2022-11-20T11:24:41.765Z,6.34
2022-11-20T11:27:18.992Z,6.56
2022-11-20T11:29:50.202Z,6.83
2022-11-20T11:32:27.552Z,7.17
2022-11-20T11:35:12.139Z,7.24
2022-11-20T11:37:44.988Z,7.36
2022-11-20T11:40:23.842Z,7.39
2022-11-20T11:43:01.511Z,7.36
2022-11-20T11:45:29.654Z,7.15
2022-11-20T11:48:04.624Z,7.13
2022-11-20T11:50:34.780Z,6.92
2022-11-20T11:53:17.016Z,6.92
2022-11-20T11:55:52.442Z,6.69
2022-11-20T11:58:45.626Z,6.44
2022-11-20T12:01:32.963Z,6.44
2022-11-20T12:04:17.595Z,6.73
2022-11-20T12:06:54.739Z,6.88
2022-11-20T12:09:38.627Z,6.83
2022-11-20T12:12:17.448Z,6.92
2022-11-20T12:14:53.639Z,7.00
2022-11-20T12:17:23.707Z,7.20
2022-11-20T12:19:53.944Z,7.52
2022-11-20T12:22:41.635Z,7.68
2022-11-20T12:25:22.257Z,8.01
2022-11-20T12:28:19.508Z,8.61
2022-11-20T12:31:12.031Z,8.93
2022-11-20T12:34:08.086Z,9.20
2022-11-20T12:36:52.087Z,8.81
2022-11-20T12:39:39.089Z,8.49
2022-11-20T12:43:09.099Z,8.95
2022-11-20T12:46:08.880Z,8.85
2022-11-20T12:48:56.989Z,8.68
2022-11-20T12:51:56.111Z,9.17
2022-11-20T12:55:09.813Z,9.26
2022-11-20T12:57:55.737Z,8.89
2022-11-20T13:00:28.394Z,8.97
2022-11-20T13:03:25.850Z,8.83
2022-11-20T13:06:08.684Z,8.68
2022-11-20T13:08:42.400Z,8.65
2022-11-20T13:11:23.803Z,8.39
2022-11-20T13:14:20.625Z,8.41
2022-11-20T13:17:04.718Z,8.20
2022-11-20T13:19:36.766Z,8.17
2022-11-20T13:22:06.788Z,8.05
2022-11-20T13:24:37.114Z,8.31
2022-11-20T13:27:24.286Z,8.37
2022-11-20T13:30:19.086Z,8.76
2022-11-20T13:32:58.036Z,8.46
2022-11-20T13:35:32.633Z,8.63
2022-11-20T13:38:11.546Z,8.67
2022-11-20T13:40:54.598Z,8.58
2022-11-20T13:43:32.377Z,8.83
2022-11-20T13:46:08.903Z,9.23
2022-11-20T13:48:44.801Z,9.00
2022-11-20T13:51:31.182Z,8.96
2022-11-20T13:54:44.770Z,8.66
2022-11-20T13:58:24.680Z,8.10
2022-11-20T14:01:11.930Z,8.00
2022-11-20T14:06:36.760Z,7.78
2022-11-20T14:09:07.030Z,7.76
2022-11-20T14:11:37.088Z,7.75
2022-11-20T14:14:18.945Z,7.77
2022-11-20T14:16:53.710Z,7.63
2022-11-20T14:19:32.493Z,7.53
2022-11-20T14:22:21.665Z,7.37
2022-11-20T14:24:53.388Z,7.22
2022-11-20T14:27:25.027Z,7.06
2022-11-20T14:29:55.821Z,7.04
2022-11-20T14:32:34.589Z,7.09
2022-11-20T14:35:13.585Z,7.04
2022-11-20T14:37:45.385Z,6.79
2022-11-20T14:40:32.534Z,6.77
2022-11-20T14:43:03.422Z,6.77
2022-11-20T14:45:33.873Z,6.75
2022-11-20T14:48:06.918Z,6.82
2022-11-20T14:50:37.485Z,6.67
2022-11-20T14:53:07.492Z,6.64
2022-11-20T14:55:39.617Z,6.60
2022-11-20T14:58:25.501Z,6.52
2022-11-20T15:01:01.347Z,6.28
2022-11-20T15:03:42.730Z,6.18
2022-11-20T15:06:16.402Z,6.25
2022-11-20T15:08:57.714Z,6.17
2022-11-20T15:11:34.372Z,6.11
2022-11-20T15:14:10.737Z,6.22
2022-11-20T15:16:42.883Z,6.32
2022-11-20T15:19:22.897Z,6.28
2022-11-20T15:21:53.431Z,6.32
2022-11-20T15:24:24.242Z,6.24
2022-11-20T15:26:54.517Z,6.26
2022-11-20T15:29:27.558Z,6.10
2022-11-20T15:31:57.743Z,5.98
2022-11-20T15:34:31.958Z,5.78
2022-11-20T15:37:02.059Z,5.76
2022-11-20T15:39:32.263Z,5.55
2022-11-20T15:42:02.427Z,5.46
2022-11-20T15:44:32.470Z,5.36
2022-11-20T15:47:02.650Z,5.29
2022-11-20T15:49:36.605Z,5.23
2022-11-20T15:52:06.870Z,5.18
2022-11-20T15:54:37.049Z,5.14
2022-11-20T15:57:07.221Z,5.05
2022-11-20T15:59:40.874Z,4.97
2022-11-20T16:02:18.885Z,4.80
2022-11-20T16:04:52.026Z,4.66
2022-11-20T16:07:23.440Z,4.58
2022-11-20T16:09:55.725Z,4.55
2022-11-20T16:12:38.053Z,4.51
2022-11-20T16:15:22.146Z,4.55
2022-11-20T16:17:52.149Z,4.64
2022-11-20T16:20:25.234Z,4.78
2022-11-20T16:22:55.256Z,4.89
2022-11-20T16:25:25.307Z,5.03
2022-11-20T16:27:55.360Z,5.11
2022-11-20T16:30:26.006Z,5.26
2022-11-20T16:32:56.092Z,5.46
2022-11-20T16:35:30.566Z,5.62
2022-11-20T16:38:02.092Z,5.70
2022-11-20T16:40:32.325Z,5.80
2022-11-20T16:43:13.292Z,5.90
2022-11-20T16:45:47.983Z,5.91
2022-11-20T16:48:19.677Z,5.94
2022-11-20T16:50:54.830Z,5.91
2022-11-20T16:53:25.840Z,5.94
2022-11-20T16:55:55.898Z,5.92
2022-11-20T16:58:25.862Z,5.88
2022-11-20T17:00:55.879Z,5.86
2022-11-20T17:03:25.828Z,5.84
2022-11-20T17:05:58.496Z,5.83
2022-11-20T17:08:31.045Z,5.82
2022-11-20T17:11:09.101Z,5.75
2022-11-20T17:13:40.206Z,5.73
2022-11-20T17:16:13.783Z,5.72
2022-11-20T17:18:44.705Z,5.63
2022-11-20T17:21:17.712Z,5.63
2022-11-20T17:23:49.921Z,5.60
2022-11-20T17:26:23.905Z,5.59
2022-11-20T17:28:59.798Z,5.58
2022-11-20T17:31:31.826Z,5.62
2022-11-20T17:34:02.402Z,5.49
2022-11-20T17:36:36.947Z,5.48
2022-11-20T17:39:09.588Z,5.50
2022-11-20T17:41:39.569Z,5.51
2022-11-20T17:44:12.386Z,5.51
2022-11-20T17:46:42.789Z,5.58
2022-11-20T17:49:12.941Z,5.60
2022-11-20T17:51:45.496Z,5.55
2022-11-20T17:54:15.497Z,5.68
2022-11-20T17:56:58.017Z,5.75
2022-11-20T17:59:28.018Z,5.75
2022-11-20T18:02:03.273Z,5.72
2022-11-20T18:04:33.830Z,5.81
2022-11-20T18:07:06.677Z,5.77
2022-11-20T18:09:37.352Z,5.74
2022-11-20T18:12:08.491Z,5.86
2022-11-20T18:14:38.767Z,5.96
2022-11-20T18:17:11.790Z,6.04
2022-11-20T18:20:07.066Z,6.10
2022-11-20T18:22:40.257Z,6.10
2022-11-20T18:25:11.890Z,6.19
2022-11-20T18:27:42.006Z,6.17
2022-11-20T18:30:14.680Z,6.21
2022-11-20T18:32:44.690Z,6.15
2022-11-20T18:35:14.725Z,6.11
2022-11-20T18:37:47.337Z,6.12
2022-11-20T18:40:17.589Z,6.01
2022-11-20T18:43:11.852Z,5.93
2022-11-20T18:45:41.796Z,5.73
2022-11-20T18:48:11.818Z,5.75
2022-11-20T18:50:41.770Z,5.77
2022-11-20T18:53:14.591Z,5.72
2022-11-20T18:55:44.702Z,5.69
2022-11-20T18:58:14.706Z,5.67
2022-11-20T19:00:44.682Z,5.67
2022-11-20T19:03:14.712Z,5.64
2022-11-20T19:05:44.768Z,5.58
2022-11-20T19:08:17.585Z,5.28
2022-11-20T19:10:47.600Z,5.14
2022-11-20T19:13:17.718Z,5.27
2022-11-20T19:15:47.686Z,5.25
2022-11-20T19:18:17.686Z,5.12
2022-11-20T19:20:47.872Z,4.95
2022-11-20T19:23:22.048Z,4.97
2022-11-20T19:25:52.438Z,4.83
2022-11-20T19:28:22.511Z,4.84
2022-11-20T19:30:52.519Z,4.82
2022-11-20T19:33:22.664Z,4.74
2022-11-20T19:35:52.720Z,4.72
2022-11-20T19:38:25.410Z,4.63
2022-11-20T19:40:55.393Z,4.70
2022-11-20T19:43:25.369Z,4.98
2022-11-20T19:45:55.648Z,4.87
2022-11-20T19:48:25.597Z,4.85
2022-11-20T19:50:55.650Z,4.91
2022-11-20T19:53:28.285Z,4.87
2022-11-20T19:55:59.741Z,4.96
2022-11-20T19:58:31.533Z,4.86
2022-11-20T20:01:09.202Z,4.85
2022-11-20T20:03:39.664Z,4.79
2022-11-20T20:06:13.557Z,4.74
2022-11-20T20:08:46.450Z,4.84
2022-11-20T20:11:18.177Z,4.81
2022-11-20T20:13:50.096Z,4.72
2022-11-20T20:16:24.046Z,4.92
2022-11-20T20:18:59.042Z,4.96
2022-11-20T20:21:30.537Z,4.86
2022-11-20T20:24:04.542Z,4.76
2022-11-20T20:26:35.835Z,4.75
2022-11-20T20:29:06.834Z,4.69
2022-11-20T20:31:37.741Z,4.68
2022-11-20T20:34:07.813Z,4.68
2022-11-20T20:36:37.782Z,4.68
2022-11-20T20:39:10.385Z,4.70
2022-11-20T20:41:40.367Z,4.67
2022-11-20T20:44:22.887Z,4.74
2022-11-20T20:46:55.243Z,4.66
2022-11-20T20:49:25.848Z,4.59
2022-11-20T20:51:56.076Z,4.70
2022-11-20T20:54:34.094Z,4.53
2022-11-20T20:57:04.498Z,4.51
2022-11-20T20:59:34.601Z,4.48
2022-11-20T21:02:04.716Z,4.48
2022-11-20T21:04:34.843Z,4.43
2022-11-20T21:07:04.995Z,4.52
2022-11-20T21:09:37.773Z,4.39
2022-11-20T21:12:08.629Z,4.27
2022-11-20T21:14:38.800Z,4.33
2022-11-20T21:17:14.841Z,4.36
2022-11-20T21:19:45.270Z,4.36
2022-11-20T21:22:12.675Z,4.39
2022-11-20T21:24:46.133Z,4.35
2022-11-20T21:27:16.122Z,4.31
2022-11-20T21:29:46.125Z,4.34
2022-11-20T21:32:16.148Z,4.25
2022-11-20T21:34:46.186Z,4.29
2022-11-20T21:37:16.656Z,4.24
2022-11-20T21:39:51.829Z,4.25
2022-11-20T21:42:21.894Z,3.98
2022-11-20T21:44:51.878Z,3.88
2022-11-20T21:47:21.906Z,3.93
2022-11-20T21:49:51.912Z,3.76
2022-11-20T21:52:22.056Z,3.73
2022-11-20T21:54:54.614Z,3.67
2022-11-20T21:57:24.667Z,3.73
2022-11-20T21:59:54.669Z,3.78
2022-11-20T22:02:24.665Z,3.85
2022-11-20T22:04:54.913Z,3.85
2022-11-20T22:07:25.118Z,3.83
2022-11-20T22:09:57.733Z,3.93
2022-11-20T22:12:27.755Z,3.88
2022-11-20T22:14:55.153Z,3.92
2022-11-20T22:17:45.097Z,4.08
2022-11-20T22:20:15.152Z,4.20
2022-11-20T22:22:45.197Z,4.24
2022-11-20T22:25:18.047Z,4.17
2022-11-20T22:27:49.685Z,4.32
2022-11-20T22:30:19.923Z,4.35
2022-11-20T22:32:50.140Z,4.39
2022-11-20T22:35:20.131Z,4.37
2022-11-20T22:37:52.350Z,4.42
2022-11-20T22:40:25.272Z,4.50
2022-11-20T22:42:55.254Z,4.53
2022-11-20T22:45:25.281Z,4.55
2022-11-20T22:47:55.264Z,4.49
2022-11-20T22:50:25.258Z,4.43
2022-11-20T22:52:55.829Z,4.30
2022-11-20T22:55:28.740Z,4.25
2022-11-20T22:57:59.585Z,4.22
2022-11-20T23:00:29.632Z,4.26
2022-11-20T23:02:59.788Z,4.20
2022-11-20T23:05:30.061Z,3.90
2022-11-20T23:08:00.021Z,3.85
2022-11-20T23:10:32.718Z,3.78
2022-11-20T23:13:02.686Z,3.78
2022-11-20T23:15:32.684Z,3.98
2022-11-20T23:18:02.723Z,4.07
2022-11-20T23:20:32.733Z,4.14
2022-11-20T23:23:02.740Z,4.29
2022-11-20T23:25:35.368Z,4.25
2022-11-20T23:28:05.421Z,4.40
2022-11-20T23:30:35.492Z,4.38
2022-11-20T23:33:06.567Z,4.43
2022-11-20T23:35:42.552Z,4.55
2022-11-20T23:38:12.612Z,4.46
2022-11-20T23:40:49.801Z,4.45
2022-11-20T23:43:23.374Z,4.43
2022-11-20T23:45:55.895Z,4.36
2022-11-20T23:48:28.794Z,4.38
2022-11-20T23:50:59.193Z,4.40
2022-11-20T23:53:30.281Z,4.50
2022-11-20T23:56:06.965Z,4.64
2022-11-20T23:58:39.711Z,4.58
